sensor_id;sensor_type;location;lat;lon;timestamp;pressure;altitude;pressure_sealevel;temperature;humidity
83894;BME280;73920;51.902;6.374;2024-02-15T00:02:16;101650.31;;;12.26;91.60
83894;BME280;73920;51.902;6.374;2024-02-15T00:04:42;101645.84;;;12.27;91.67
83894;BME280;73920;51.902;6.374;2024-02-15T00:07:08;101649.50;;;12.26;91.48
83894;BME280;73920;51.902;6.374;2024-02-15T00:09:34;101649.41;;;12.27;91.53
83894;BME280;73920;51.902;6.374;2024-02-15T00:12:01;101646.72;;;12.27;91.44
83894;BME280;73920;51.902;6.374;2024-02-15T00:14:27;101641.34;;;12.27;91.30
83894;BME280;73920;51.902;6.374;2024-02-15T00:16:53;101653.72;;;12.30;91.72
83894;BME280;73920;51.902;6.374;2024-02-15T00:19:20;101652.88;;;12.29;91.53
83894;BME280;73920;51.902;6.374;2024-02-15T00:21:46;101653.66;;;12.31;91.46
83894;BME280;73920;51.902;6.374;2024-02-15T00:24:12;101653.72;;;12.30;91.30
83894;BME280;73920;51.902;6.374;2024-02-15T00:26:38;101653.72;;;12.30;91.30
83894;BME280;73920;51.902;6.374;2024-02-15T00:29:05;101648.38;;;12.30;91.17
83894;BME280;73920;51.902;6.374;2024-02-15T00:31:31;101649.25;;;12.30;91.63
83894;BME280;73920;51.902;6.374;2024-02-15T00:33:57;101646.56;;;12.30;91.58
83894;BME280;73920;51.902;6.374;2024-02-15T00:36:23;101648.31;;;12.31;91.11
83894;BME280;73920;51.902;6.374;2024-02-15T00:38:50;101654.59;;;12.30;91.58
83894;BME280;73920;51.902;6.374;2024-02-15T00:41:16;101660.06;;;12.29;91.49
83894;BME280;73920;51.902;6.374;2024-02-15T00:43:42;101653.81;;;12.28;91.12
83894;BME280;73920;51.902;6.374;2024-02-15T00:46:08;101654.75;;;12.27;91.52
83894;BME280;73920;51.902;6.374;2024-02-15T00:48:34;101651.16;;;12.28;91.69
83894;BME280;73920;51.902;6.374;2024-02-15T00:51:01;101650.28;;;12.28;91.58
83894;BME280;73920;51.902;6.374;2024-02-15T00:53:27;101654.69;;;12.29;91.46
83894;BME280;73920;51.902;6.374;2024-02-15T00:55:53;101656.50;;;12.28;91.19
83894;BME280;73920;51.902;6.374;2024-02-15T00:58:19;101652.88;;;12.29;91.32
83894;BME280;73920;51.902;6.374;2024-02-15T01:00:45;101655.47;;;12.31;91.52
83894;BME280;73920;51.902;6.374;2024-02-15T01:03:12;101659.97;;;12.30;91.10
83894;BME280;73920;51.902;6.374;2024-02-15T01:05:38;101662.59;;;12.32;91.08
83894;BME280;73920;51.902;6.374;2024-02-15T01:08:04;101658.97;;;12.33;91.32
83894;BME280;73920;51.902;6.374;2024-02-15T01:10:31;101647.81;;;12.23;91.08
83894;BME280;73920;51.902;6.374;2024-02-15T01:12:57;101660.69;;;12.34;90.89
83894;BME280;73920;51.902;6.374;2024-02-15T01:15:23;101666.91;;;12.34;91.04
83894;BME280;73920;51.902;6.374;2024-02-15T01:17:49;101659.75;;;12.35;91.25
83894;BME280;73920;51.902;6.374;2024-02-15T01:20:15;101662.44;;;12.35;91.13
83894;BME280;73920;51.902;6.374;2024-02-15T01:22:42;101650.84;;;12.34;90.71
83894;BME280;73920;51.902;6.374;2024-02-15T01:25:08;101656.19;;;12.34;91.19
83894;BME280;73920;51.902;6.374;2024-02-15T01:27:34;101637.78;;;12.27;90.81
83894;BME280;73920;51.902;6.374;2024-02-15T01:30:01;101657.00;;;12.37;90.87
83894;BME280;73920;51.902;6.374;2024-02-15T01:32:27;101638.66;;;12.27;91.13
83894;BME280;73920;51.902;6.374;2024-02-15T01:34:54;101647.16;;;12.37;91.15
83894;BME280;73920;51.902;6.374;2024-02-15T01:37:20;101651.66;;;12.37;91.14
83894;BME280;73920;51.902;6.374;2024-02-15T01:39:47;101649.03;;;12.35;90.74
83894;BME280;73920;51.902;6.374;2024-02-15T01:42:14;101643.81;;;12.32;90.81
83894;BME280;73920;51.902;6.374;2024-02-15T01:44:43;101652.62;;;12.34;90.98
83894;BME280;73920;51.902;6.374;2024-02-15T01:47:09;101649.09;;;12.33;90.97
83894;BME280;73920;51.902;6.374;2024-02-15T01:49:36;101655.31;;;12.34;90.82
83894;BME280;73920;51.902;6.374;2024-02-15T01:52:05;101642.88;;;12.33;90.75
83894;BME280;73920;51.902;6.374;2024-02-15T01:54:32;101640.25;;;12.31;90.89
83894;BME280;73920;51.902;6.374;2024-02-15T01:56:59;101633.16;;;12.30;90.76
83894;BME280;73920;51.902;6.374;2024-02-15T01:59:26;101635.06;;;12.28;90.66
83894;BME280;73920;51.902;6.374;2024-02-15T02:01:52;101636.81;;;12.29;90.85
83894;BME280;73920;51.902;6.374;2024-02-15T02:04:18;101631.44;;;12.29;90.82
83894;BME280;73920;51.902;6.374;2024-02-15T02:06:45;101628.75;;;12.29;90.78
83894;BME280;73920;51.902;6.374;2024-02-15T02:09:12;101627.94;;;12.27;90.56
83894;BME280;73920;51.902;6.374;2024-02-15T02:11:39;101620.00;;;12.26;90.63
83894;BME280;73920;51.902;6.374;2024-02-15T02:14:05;101627.06;;;12.27;90.94
83894;BME280;73920;51.902;6.374;2024-02-15T02:16:32;101626.19;;;12.26;90.89
83894;BME280;73920;51.902;6.374;2024-02-15T02:18:59;101624.47;;;12.25;90.69
83894;BME280;73920;51.902;6.374;2024-02-15T02:21:29;101621.00;;;12.23;90.42
83894;BME280;73920;51.902;6.374;2024-02-15T02:23:58;101618.41;;;12.22;90.64
83894;BME280;73920;51.902;6.374;2024-02-15T02:26:25;101616.66;;;12.21;90.94
83894;BME280;73920;51.902;6.374;2024-02-15T02:28:52;101610.34;;;12.22;90.98
83894;BME280;73920;51.902;6.374;2024-02-15T02:31:18;101613.03;;;12.22;90.53
83894;BME280;73920;51.902;6.374;2024-02-15T02:33:51;101612.16;;;12.21;90.63
83894;BME280;73920;51.902;6.374;2024-02-15T02:36:21;101613.03;;;12.22;90.66
83894;BME280;73920;51.902;6.374;2024-02-15T02:38:47;101618.47;;;12.20;90.52
83894;BME280;73920;51.902;6.374;2024-02-15T02:41:13;101614.03;;;12.19;90.51
83894;BME280;73920;51.902;6.374;2024-02-15T02:43:40;101608.66;;;12.19;90.30
83894;BME280;73920;51.902;6.374;2024-02-15T02:46:09;101613.19;;;12.19;90.39
83894;BME280;73920;51.902;6.374;2024-02-15T02:48:37;101606.81;;;12.21;90.57
83894;BME280;73920;51.902;6.374;2024-02-15T02:51:04;101605.94;;;12.21;90.25
83894;BME280;73920;51.902;6.374;2024-02-15T02:53:30;101601.59;;;12.18;90.58
83894;BME280;73920;51.902;6.374;2024-02-15T02:55:57;101597.88;;;12.21;90.43
83894;BME280;73920;51.902;6.374;2024-02-15T02:58:23;101588.09;;;12.20;90.37
83894;BME280;73920;51.902;6.374;2024-02-15T03:00:50;101597.88;;;12.21;90.75
83894;BME280;73920;51.902;6.374;2024-02-15T03:03:17;101593.41;;;12.21;90.27
83894;BME280;73920;51.902;6.374;2024-02-15T03:05:43;101582.16;;;12.13;90.65
83894;BME280;73920;51.902;6.374;2024-02-15T03:08:11;101596.94;;;12.22;90.42
83894;BME280;73920;51.902;6.374;2024-02-15T03:10:37;101586.22;;;12.22;90.08
83894;BME280;73920;51.902;6.374;2024-02-15T03:13:05;101602.31;;;12.22;90.54
83894;BME280;73920;51.902;6.374;2024-02-15T03:15:31;101594.31;;;12.20;90.16
83894;BME280;73920;51.902;6.374;2024-02-15T03:17:58;101584.53;;;12.19;90.34
83894;BME280;73920;51.902;6.374;2024-02-15T03:20:24;101590.00;;;12.18;90.30
83894;BME280;73920;51.902;6.374;2024-02-15T03:22:56;101583.75;;;12.17;90.20
83894;BME280;73920;51.902;6.374;2024-02-15T03:25:23;101587.38;;;12.16;89.98
83894;BME280;73920;51.902;6.374;2024-02-15T03:27:51;101583.09;;;12.12;90.46
83894;BME280;73920;51.902;6.374;2024-02-15T03:30:18;101585.00;;;12.10;90.32
83894;BME280;73920;51.902;6.374;2024-02-15T03:32:44;101589.56;;;12.08;90.04
83894;BME280;73920;51.902;6.374;2024-02-15T03:35:10;101593.34;;;12.04;90.43
83894;BME280;73920;51.902;6.374;2024-02-15T03:37:36;101589.00;;;12.02;90.50
83894;BME280;73920;51.902;6.374;2024-02-15T03:40:04;101593.47;;;12.01;90.40
83894;BME280;73920;51.902;6.374;2024-02-15T03:42:30;101590.91;;;12.00;90.38
83894;BME280;73920;51.902;6.374;2024-02-15T03:44:57;101584.66;;;11.99;90.16
83894;BME280;73920;51.902;6.374;2024-02-15T03:47:23;101584.72;;;11.98;90.59
83894;BME280;73920;51.902;6.374;2024-02-15T03:49:49;101585.69;;;11.97;90.54
83894;BME280;73920;51.902;6.374;2024-02-15T03:52:15;101581.25;;;11.96;90.25
83894;BME280;73920;51.902;6.374;2024-02-15T03:54:42;101590.19;;;11.96;90.70
83894;BME280;73920;51.902;6.374;2024-02-15T03:57:08;101589.31;;;11.96;90.20
83894;BME280;73920;51.902;6.374;2024-02-15T03:59:34;101588.44;;;11.95;90.36
83894;BME280;73920;51.902;6.374;2024-02-15T04:02:00;101589.34;;;11.94;90.05
83894;BME280;73920;51.902;6.374;2024-02-15T04:04:27;101590.22;;;11.95;90.02
83894;BME280;73920;51.902;6.374;2024-02-15T04:06:53;101588.44;;;11.95;90.04
83894;BME280;73920;51.902;6.374;2024-02-15T04:09:19;101599.16;;;11.95;90.11
83894;BME280;73920;51.902;6.374;2024-02-15T04:11:48;101596.47;;;11.95;90.15
83894;BME280;73920;51.902;6.374;2024-02-15T04:14:15;101593.78;;;11.95;90.03
83894;BME280;73920;51.902;6.374;2024-02-15T04:16:41;101593.78;;;11.95;89.98
83894;BME280;73920;51.902;6.374;2024-02-15T04:19:07;101570.19;;;11.84;90.38
83894;BME280;73920;51.902;6.374;2024-02-15T04:21:34;101583.94;;;11.96;90.30
83894;BME280;73920;51.902;6.374;2024-02-15T04:24:00;101584.81;;;11.96;90.37
83894;BME280;73920;51.902;6.374;2024-02-15T04:26:26;101579.44;;;11.96;90.33
83894;BME280;73920;51.902;6.374;2024-02-15T04:28:55;101581.25;;;11.96;90.26
83894;BME280;73920;51.902;6.374;2024-02-15T04:31:21;101576.06;;;11.93;90.14
83894;BME280;73920;51.902;6.374;2024-02-15T04:33:48;101580.38;;;11.95;90.38
83894;BME280;73920;51.902;6.374;2024-02-15T04:36:14;101566.13;;;11.95;89.93
83894;BME280;73920;51.902;6.374;2024-02-15T04:38:40;101557.28;;;11.93;90.29
83894;BME280;73920;51.902;6.374;2024-02-15T04:41:06;101553.75;;;11.92;90.21
83894;BME280;73920;51.902;6.374;2024-02-15T04:43:33;101547.50;;;11.92;89.91
83894;BME280;73920;51.902;6.374;2024-02-15T04:45:59;101552.00;;;11.91;90.01
83894;BME280;73920;51.902;6.374;2024-02-15T04:48:25;101552.09;;;11.90;89.87
83894;BME280;73920;51.902;6.374;2024-02-15T04:50:51;101547.72;;;11.87;89.96
83894;BME280;73920;51.902;6.374;2024-02-15T04:53:18;101549.78;;;11.82;90.02
83894;BME280;73920;51.902;6.374;2024-02-15T04:55:44;101541.66;;;11.83;90.09
83894;BME280;73920;51.902;6.374;2024-02-15T04:58:10;101551.50;;;11.83;89.97
83894;BME280;73920;51.902;6.374;2024-02-15T05:00:37;101544.25;;;11.85;90.23
83894;BME280;73920;51.902;6.374;2024-02-15T05:03:04;101545.13;;;11.86;90.39
83894;BME280;73920;51.902;6.374;2024-02-15T05:05:30;101543.31;;;11.86;90.25
83894;BME280;73920;51.902;6.374;2024-02-15T05:07:57;101540.66;;;11.86;90.28
83894;BME280;73920;51.902;6.374;2024-02-15T05:10:23;101537.81;;;11.89;89.82
83894;BME280;73920;51.902;6.374;2024-02-15T05:12:49;101540.41;;;11.91;89.84
83894;BME280;73920;51.902;6.374;2024-02-15T05:15:16;101545.69;;;11.92;89.72
83894;BME280;73920;51.902;6.374;2024-02-15T05:17:42;101541.22;;;11.93;89.89
83894;BME280;73920;51.902;6.374;2024-02-15T05:20:12;101543.81;;;11.94;90.08
83894;BME280;73920;51.902;6.374;2024-02-15T05:22:39;101535.69;;;11.96;89.60
83894;BME280;73920;51.902;6.374;2024-02-15T05:25:07;101549.03;;;11.97;89.74
83894;BME280;73920;51.902;6.374;2024-02-15T05:27:34;101541.06;;;11.96;89.87
83894;BME280;73920;51.902;6.374;2024-02-15T05:30:00;101545.47;;;11.97;89.94
83894;BME280;73920;51.902;6.374;2024-02-15T05:32:26;101541.94;;;11.96;89.69
83894;BME280;73920;51.902;6.374;2024-02-15T05:34:53;101535.69;;;11.96;89.87
83894;BME280;73920;51.902;6.374;2024-02-15T05:37:20;101540.03;;;11.98;89.69
83894;BME280;73920;51.902;6.374;2024-02-15T05:39:46;101545.22;;;12.01;89.42
83894;BME280;73920;51.902;6.374;2024-02-15T05:42:12;101544.28;;;12.02;89.75
83894;BME280;73920;51.902;6.374;2024-02-15T05:44:38;101537.12;;;12.03;89.63
83894;BME280;73920;51.902;6.374;2024-02-15T05:47:04;101536.25;;;12.02;89.28
83894;BME280;73920;51.902;6.374;2024-02-15T05:49:31;101543.28;;;12.05;89.25
83894;BME280;73920;51.902;6.374;2024-02-15T05:51:57;101548.63;;;12.05;89.63
83894;BME280;73920;51.902;6.374;2024-02-15T05:54:23;101548.63;;;12.05;89.62
83894;BME280;73920;51.902;6.374;2024-02-15T05:56:49;101530.50;;;11.93;89.76
83894;BME280;73920;51.902;6.374;2024-02-15T05:59:15;101547.78;;;12.04;89.70
83894;BME280;73920;51.902;6.374;2024-02-15T06:01:42;101546.81;;;12.05;89.73
83894;BME280;73920;51.902;6.374;2024-02-15T06:04:08;101546.81;;;12.05;89.90
83894;BME280;73920;51.902;6.374;2024-02-15T06:06:35;101537.84;;;12.06;89.73
83894;BME280;73920;51.902;6.374;2024-02-15T06:09:01;101546.81;;;12.05;89.49
83894;BME280;73920;51.902;6.374;2024-02-15T06:11:27;101546.81;;;12.05;89.64
83894;BME280;73920;51.902;6.374;2024-02-15T06:13:53;101547.69;;;12.06;89.65
83894;BME280;73920;51.902;6.374;2024-02-15T06:16:20;101541.47;;;12.05;89.58
83894;BME280;73920;51.902;6.374;2024-02-15T06:18:47;101545.87;;;12.06;89.93
83894;BME280;73920;51.902;6.374;2024-02-15T06:21:13;101538.78;;;12.05;90.08
83894;BME280;73920;51.902;6.374;2024-02-15T06:23:42;101536.09;;;12.05;90.04
83894;BME280;73920;51.902;6.374;2024-02-15T06:26:09;101531.72;;;12.04;90.24
83894;BME280;73920;51.902;6.374;2024-02-15T06:28:35;101525.37;;;12.05;89.87
83894;BME280;73920;51.902;6.374;2024-02-15T06:31:02;101512.84;;;12.06;90.04
83894;BME280;73920;51.902;6.374;2024-02-15T06:33:28;101493.22;;;12.05;89.91
83894;BME280;73920;51.902;6.374;2024-02-15T06:35:54;101469.25;;;12.02;90.43
83894;BME280;73920;51.902;6.374;2024-02-15T06:38:20;101447.69;;;11.87;90.13
83894;BME280;73920;51.902;6.374;2024-02-15T06:40:46;101441.97;;;11.94;90.79
83894;BME280;73920;51.902;6.374;2024-02-15T06:43:13;101431.41;;;11.91;90.61
83894;BME280;73920;51.902;6.374;2024-02-15T06:45:40;101421.72;;;11.89;90.48
83894;BME280;73920;51.902;6.374;2024-02-15T06:48:07;101433.37;;;11.88;91.19
83894;BME280;73920;51.902;6.374;2024-02-15T06:50:33;101458.34;;;11.88;90.61
83894;BME280;73920;51.902;6.374;2024-02-15T06:52:59;101460.09;;;11.89;90.80
83894;BME280;73920;51.902;6.374;2024-02-15T06:55:25;101488.59;;;11.90;90.60
83894;BME280;73920;51.902;6.374;2024-02-15T06:57:51;101491.16;;;11.93;90.76
83894;BME280;73920;51.902;6.374;2024-02-15T07:00:18;101488.31;;;11.96;90.65
83894;BME280;73920;51.902;6.374;2024-02-15T07:02:44;101489.19;;;11.97;90.73
83894;BME280;73920;51.902;6.374;2024-02-15T07:05:10;101507.00;;;11.98;90.48
83894;BME280;73920;51.902;6.374;2024-02-15T07:07:37;101505.28;;;11.97;90.89
83894;BME280;73920;51.902;6.374;2024-02-15T07:10:04;101512.34;;;11.98;90.56
83894;BME280;73920;51.902;6.374;2024-02-15T07:12:30;101521.28;;;11.98;90.81
83894;BME280;73920;51.902;6.374;2024-02-15T07:14:56;101516.06;;;11.95;90.61
83894;BME280;73920;51.902;6.374;2024-02-15T07:17:22;101525.84;;;11.96;90.70
83894;BME280;73920;51.902;6.374;2024-02-15T07:19:49;101515.91;;;11.98;90.77
83894;BME280;73920;51.902;6.374;2024-02-15T07:22:15;101525.75;;;11.98;90.60
83894;BME280;73920;51.902;6.374;2024-02-15T07:24:42;101517.66;;;11.99;90.94
83894;BME280;73920;51.902;6.374;2024-02-15T07:27:08;101514.03;;;12.00;90.46
83894;BME280;73920;51.902;6.374;2024-02-15T07:29:34;101513.06;;;12.01;90.69
83894;BME280;73920;51.902;6.374;2024-02-15T07:32:04;101518.44;;;12.01;90.98
83894;BME280;73920;51.902;6.374;2024-02-15T07:34:31;101504.19;;;12.01;90.91
83894;BME280;73920;51.902;6.374;2024-02-15T07:36:57;101498.72;;;12.02;90.48
83894;BME280;73920;51.902;6.374;2024-02-15T07:39:24;101508.50;;;12.03;90.77
83894;BME280;73920;51.902;6.374;2024-02-15T07:41:51;101505.84;;;12.03;90.70
83894;BME280;73920;51.902;6.374;2024-02-15T07:44:17;101496.00;;;12.04;90.78
83894;BME280;73920;51.902;6.374;2024-02-15T07:46:45;101485.25;;;12.04;90.65
83894;BME280;73920;51.902;6.374;2024-02-15T07:49:12;101486.19;;;12.03;90.49
83894;BME280;73920;51.902;6.374;2024-02-15T07:51:38;101514.81;;;12.02;90.84
83894;BME280;73920;51.902;6.374;2024-02-15T07:54:04;101527.28;;;12.03;90.97
83894;BME280;73920;51.902;6.374;2024-02-15T07:56:30;101529.97;;;12.03;90.84
83894;BME280;73920;51.902;6.374;2024-02-15T07:58:57;101530.84;;;12.04;90.55
83894;BME280;73920;51.902;6.374;2024-02-15T08:01:23;101533.50;;;12.04;90.92
83894;BME280;73920;51.902;6.374;2024-02-15T08:03:49;101531.63;;;12.06;90.79
83894;BME280;73920;51.902;6.374;2024-02-15T08:06:16;101520.81;;;12.07;90.78
83894;BME280;73920;51.902;6.374;2024-02-15T08:08:44;101528.06;;;12.05;90.88
83894;BME280;73920;51.902;6.374;2024-02-15T08:11:13;101529.75;;;12.08;91.15
83894;BME280;73920;51.902;6.374;2024-02-15T08:16:11;101520.50;;;12.13;90.63
83894;BME280;73920;51.902;6.374;2024-02-15T08:18:38;101508.75;;;12.16;90.86
83894;BME280;73920;51.902;6.374;2024-02-15T08:21:05;101513.28;;;12.15;90.39
83894;BME280;73920;51.902;6.374;2024-02-15T08:23:31;101528.37;;;12.16;90.68
83894;BME280;73920;51.902;6.374;2024-02-15T08:25:57;101517.75;;;12.15;90.63
83894;BME280;73920;51.902;6.374;2024-02-15T08:28:24;101523.03;;;12.16;90.51
83894;BME280;73920;51.902;6.374;2024-02-15T08:30:52;101520.34;;;12.16;90.54
83894;BME280;73920;51.902;6.374;2024-02-15T08:33:18;101518.69;;;12.14;90.62
83894;BME280;73920;51.902;6.374;2024-02-15T08:35:44;101510.66;;;12.14;90.91
83894;BME280;73920;51.902;6.374;2024-02-15T08:38:11;101510.72;;;12.12;90.79
83894;BME280;73920;51.902;6.374;2024-02-15T08:40:37;101508.03;;;12.12;90.47
83894;BME280;73920;51.902;6.374;2024-02-15T08:43:03;101513.41;;;12.12;90.77
83894;BME280;73920;51.902;6.374;2024-02-15T08:45:30;101510.72;;;12.12;90.72
83894;BME280;73920;51.902;6.374;2024-02-15T08:47:56;101514.22;;;12.14;91.11
83894;BME280;73920;51.902;6.374;2024-02-15T08:50:22;101510.59;;;12.15;90.84
83894;BME280;73920;51.902;6.374;2024-02-15T08:52:49;101507.75;;;12.18;90.83
83894;BME280;73920;51.902;6.374;2024-02-15T08:55:16;101512.16;;;12.19;90.79
83894;BME280;73920;51.902;6.374;2024-02-15T08:57:43;101517.44;;;12.21;90.72
83894;BME280;73920;51.902;6.374;2024-02-15T09:00:10;101520.06;;;12.22;90.86
83894;BME280;73920;51.902;6.374;2024-02-15T09:02:36;101519.91;;;12.25;90.56
83894;BME280;73920;51.902;6.374;2024-02-15T09:05:02;101518.88;;;12.28;90.82
83894;BME280;73920;51.902;6.374;2024-02-15T09:07:29;101514.22;;;12.31;90.35
83894;BME280;73920;51.902;6.374;2024-02-15T09:09:55;101515.97;;;12.32;90.78
83894;BME280;73920;51.902;6.374;2024-02-15T09:12:21;101524.00;;;12.32;90.33
83894;BME280;73920;51.902;6.374;2024-02-15T09:14:47;101526.53;;;12.36;90.53
83894;BME280;73920;51.902;6.374;2024-02-15T09:17:14;101539.78;;;12.39;90.46
83894;BME280;73920;51.902;6.374;2024-02-15T09:19:40;101533.47;;;12.40;90.38
83894;BME280;73920;51.902;6.374;2024-02-15T09:22:07;101525.44;;;12.40;90.33
83894;BME280;73920;51.902;6.374;2024-02-15T09:24:33;101534.25;;;12.42;90.62
83894;BME280;73920;51.902;6.374;2024-02-15T09:27:01;101522.41;;;12.46;90.56
83894;BME280;73920;51.902;6.374;2024-02-15T09:29:30;101528.44;;;12.51;90.36
83894;BME280;73920;51.902;6.374;2024-02-15T09:31:57;101530.00;;;12.55;90.36
83894;BME280;73920;51.902;6.374;2024-02-15T09:34:24;101536.22;;;12.55;90.22
83894;BME280;73920;51.902;6.374;2024-02-15T09:36:50;101524.47;;;12.58;90.07
83894;BME280;73920;51.902;6.374;2024-02-15T09:39:17;101531.56;;;12.59;89.85
83894;BME280;73920;51.902;6.374;2024-02-15T09:41:43;101535.06;;;12.61;90.11
83894;BME280;73920;51.902;6.374;2024-02-15T09:44:10;101537.72;;;12.61;90.18
83894;BME280;73920;51.902;6.374;2024-02-15T09:46:40;101543.09;;;12.61;89.69
83894;BME280;73920;51.902;6.374;2024-02-15T09:49:08;101541.28;;;12.61;89.92
83894;BME280;73920;51.902;6.374;2024-02-15T09:51:35;101540.25;;;12.64;89.89
83894;BME280;73920;51.902;6.374;2024-02-15T09:54:03;101529.34;;;12.67;89.95
83894;BME280;73920;51.902;6.374;2024-02-15T09:56:31;101513.81;;;12.56;89.71
83894;BME280;73920;51.902;6.374;2024-02-15T09:58:59;101524.78;;;12.69;89.83
83894;BME280;73920;51.902;6.374;2024-02-15T10:01:28;101524.84;;;12.67;89.67
83894;BME280;73920;51.902;6.374;2024-02-15T10:03:58;101504.72;;;12.59;89.76
83894;BME280;73920;51.902;6.374;2024-02-15T10:06:27;101525.56;;;12.71;89.78
83894;BME280;73920;51.902;6.374;2024-02-15T10:14:25;101506.81;;;12.54;90.14
83894;BME280;73920;51.902;6.374;2024-02-15T10:16:53;101521.41;;;12.65;89.98
83894;BME280;73920;51.902;6.374;2024-02-15T10:19:20;101505.94;;;12.53;90.19
83894;BME280;73920;51.902;6.374;2024-02-15T10:21:47;101518.63;;;12.67;89.96
83894;BME280;73920;51.902;6.374;2024-02-15T10:24:14;101505.69;;;12.58;90.05
83894;BME280;73920;51.902;6.374;2024-02-15T18:00:46;101154.81;;;12.78;81.80
83894;BME280;73920;51.902;6.374;2024-02-15T18:03:12;101149.88;;;12.87;82.69
83894;BME280;73920;51.902;6.374;2024-02-15T18:05:38;101148.44;;;12.95;81.96
83894;BME280;73920;51.902;6.374;2024-02-15T18:08:05;101149.47;;;13.08;81.70
83894;BME280;73920;51.902;6.374;2024-02-15T18:10:31;101154.22;;;13.19;80.76
83894;BME280;73920;51.902;6.374;2024-02-15T18:12:58;101169.50;;;13.32;79.96
83894;BME280;73920;51.902;6.374;2024-02-15T18:15:24;101170.66;;;13.43;79.47
83894;BME280;73920;51.902;6.374;2024-02-15T18:17:50;101158.50;;;13.51;78.67
83894;BME280;73920;51.902;6.374;2024-02-15T18:20:17;101154.28;;;13.61;78.93
83894;BME280;73920;51.902;6.374;2024-02-15T18:22:43;101152.19;;;13.66;78.31
83894;BME280;73920;51.902;6.374;2024-02-15T18:25:10;101145.72;;;13.69;77.80
83894;BME280;73920;51.902;6.374;2024-02-15T18:27:37;101146.50;;;13.71;77.39
83894;BME280;73920;51.902;6.374;2024-02-15T18:30:08;101142.66;;;13.75;77.33
83894;BME280;73920;51.902;6.374;2024-02-15T18:32:35;101137.38;;;13.73;76.96
83894;BME280;73920;51.902;6.374;2024-02-15T18:35:01;101135.66;;;13.72;77.04
83894;BME280;73920;51.902;6.374;2024-02-15T18:37:27;101134.03;;;13.70;76.85
83894;BME280;73920;51.902;6.374;2024-02-15T18:39:54;101128.06;;;13.65;77.13
83894;BME280;73920;51.902;6.374;2024-02-15T18:42:20;101140.75;;;13.63;76.80
83894;BME280;73920;51.902;6.374;2024-02-15T18:44:46;101132.97;;;13.58;77.27
83894;BME280;73920;51.902;6.374;2024-02-15T18:47:12;101120.78;;;13.53;77.06
83894;BME280;73920;51.902;6.374;2024-02-15T18:49:38;101108.13;;;13.41;77.13
83894;BME280;73920;51.902;6.374;2024-02-15T18:52:05;101125.78;;;13.45;77.36
83894;BME280;73920;51.902;6.374;2024-02-15T18:54:31;101139.41;;;13.42;77.46
83894;BME280;73920;51.902;6.374;2024-02-15T18:56:57;101137.84;;;13.38;77.91
83894;BME280;73920;51.902;6.374;2024-02-15T18:59:23;101136.50;;;13.30;77.87
83894;BME280;73920;51.902;6.374;2024-02-15T19:01:50;101138.50;;;13.27;77.93
83894;BME280;73920;51.902;6.374;2024-02-15T19:04:16;101133.41;;;13.22;78.34
83894;BME280;73920;51.902;6.374;2024-02-15T19:06:42;101134.75;;;13.15;77.88
83894;BME280;73920;51.902;6.374;2024-02-15T19:09:08;101131.19;;;13.15;77.97
83894;BME280;73920;51.902;6.374;2024-02-15T19:11:35;101131.13;;;13.16;77.38
83894;BME280;73920;51.902;6.374;2024-02-15T19:14:01;101128.31;;;13.18;77.58
83894;BME280;73920;51.902;6.374;2024-02-15T19:16:27;101120.38;;;13.16;77.28
83894;BME280;73920;51.902;6.374;2024-02-15T19:18:53;101117.78;;;13.15;77.09
83894;BME280;73920;51.902;6.374;2024-02-15T19:21:20;101120.38;;;13.16;76.75
83894;BME280;73920;51.902;6.374;2024-02-15T19:23:46;101117.56;;;13.18;76.79
83894;BME280;73920;51.902;6.374;2024-02-15T19:26:12;101105.97;;;13.17;76.62
83894;BME280;73920;51.902;6.374;2024-02-15T19:28:38;101111.34;;;13.17;76.74
83894;BME280;73920;51.902;6.374;2024-02-15T19:31:05;101105.97;;;13.17;76.54
83894;BME280;73920;51.902;6.374;2024-02-15T19:33:31;101107.97;;;13.14;76.48
83894;BME280;73920;51.902;6.374;2024-02-15T19:35:57;101107.91;;;13.15;76.84
83894;BME280;73920;51.902;6.374;2024-02-15T19:38:23;101101.75;;;13.13;76.68
83894;BME280;73920;51.902;6.374;2024-02-15T19:40:49;101104.41;;;13.13;76.50
83894;BME280;73920;51.902;6.374;2024-02-15T19:43:16;101096.38;;;13.13;76.12
83894;BME280;73920;51.902;6.374;2024-02-15T19:45:42;101091.97;;;13.12;76.21
83894;BME280;73920;51.902;6.374;2024-02-15T19:48:09;101093.88;;;13.10;76.12
83894;BME280;73920;51.902;6.374;2024-02-15T19:50:36;101099.25;;;13.10;76.15
83894;BME280;73920;51.902;6.374;2024-02-15T19:53:02;101097.53;;;13.09;76.15
83894;BME280;73920;51.902;6.374;2024-02-15T19:55:28;101090.41;;;13.08;75.60
83894;BME280;73920;51.902;6.374;2024-02-15T19:57:54;101094.84;;;13.09;75.76
83894;BME280;73920;51.902;6.374;2024-02-15T20:00:21;101102.91;;;13.09;76.26
83894;BME280;73920;51.902;6.374;2024-02-15T20:02:47;101097.59;;;13.08;75.94
83894;BME280;73920;51.902;6.374;2024-02-15T20:05:14;101094.03;;;13.07;75.20
83894;BME280;73920;51.902;6.374;2024-02-15T20:07:40;101092.31;;;13.06;75.23
83894;BME280;73920;51.902;6.374;2024-02-15T20:10:08;101092.31;;;13.06;75.39
83894;BME280;73920;51.902;6.374;2024-02-15T20:12:34;101078.13;;;13.04;74.99
83894;BME280;73920;51.902;6.374;2024-02-15T20:15:01;101084.44;;;13.03;75.04
83894;BME280;73920;51.902;6.374;2024-02-15T20:17:28;101080.00;;;13.02;75.15
83894;BME280;73920;51.902;6.374;2024-02-15T20:19:55;101077.25;;;13.04;74.68
83894;BME280;73920;51.902;6.374;2024-02-15T20:22:22;101077.16;;;13.05;74.27
83894;BME280;73920;51.902;6.374;2024-02-15T20:24:48;101074.50;;;13.05;74.42
83894;BME280;73920;51.902;6.374;2024-02-15T20:27:14;101075.50;;;13.03;75.15
83894;BME280;73920;51.902;6.374;2024-02-15T20:29:40;101072.16;;;12.99;74.49